Buoy 41613

sailwx.info

Track history (hours):
 
Tides and Currents Weather Stations Pressure Air Temp Water Temp Dewpoint Dewpoint Depression Visibility Wind Speed Wind Dir Waves Ship Positions

Drifting buoy 41613

Last reported at 2014-Dec-22 11:00 UTC. Time now 2014-Dec-22 17:04 UTC.
Position N 31°32' W 069°13'.

Water temperature 22.8 ° C

Date/timePositionNaut miles runAvg speedWind from/ knotsBaromVisibWave heightAir tempDewpointWater temp
2014-Dec-22 11:00N 31°32' W 069°13'0 0.0 22.8
2014-Dec-22 10:00N 31°32' W 069°13'0 0.0 22.9
2014-Dec-22 09:00N 31°32' W 069°13'0 0.0 22.9
2014-Dec-22 06:00N 31°32' W 069°13'0 0.0 22.8
2014-Dec-21 20:00N 31°32' W 069°13'20 1.4 22.8
2014-Dec-21 06:00N 31°26' W 068°51'0 0.0 22.7
2014-Dec-21 00:00N 31°26' W 068°51'0 0.0 22.8
2014-Dec-20 21:00N 31°26' W 068°51'0 0.0 22.8
2014-Dec-20 17:00N 31°26' W 068°51'0 0.0 23.1
2014-Dec-20 11:00N 31°26' W 068°51'0 0.0 22.7
2014-Dec-20 10:00N 31°26' W 068°51'0 0.0 22.8
2014-Dec-20 09:00N 31°26' W 068°51'0 0.0 22.8
2014-Dec-20 05:00N 31°26' W 068°51'0 0.0 23.0
2014-Dec-20 00:00N 31°26' W 068°51'0 0.0 23.1
2014-Dec-19 22:00N 31°26' W 068°51'0 0.0 22.9
2014-Dec-19 21:00N 31°26' W 068°51'0 0.0 22.8
2014-Dec-19 10:00N 31°26' W 068°51'0 0.0 23.0
2014-Dec-19 09:00N 31°26' W 068°51'3 0.5 23.0
2014-Dec-19 02:00N 31°24' W 068°48'4 0.7 23.1
2014-Dec-18 20:00N 31°21' W 068°46'0 0.0 22.7
2014-Dec-18 19:00N 31°21' W 068°46'0 0.0 22.8
2014-Dec-18 15:00N 31°21' W 068°46'1 0.7 22.7
2014-Dec-18 13:00N 31°20' W 068°44'8 1.9 22.7
2014-Dec-18 09:00N 31°14' W 068°38'0 0.0 22.7
2014-Dec-18 01:00N 31°14' W 068°38'0 0.0 22.7
2014-Dec-17 23:00N 31°14' W 068°38'11 2.3 22.7
2014-Dec-17 18:00N 31°03' W 068°35'0 0.0 22.7
2014-Dec-17 09:00N 31°03' W 068°35'0 0.0 22.6
2014-Dec-17 01:00N 31°03' W 068°35'0 0.0 22.7
2014-Dec-16 22:00N 31°03' W 068°35'0 0.0 22.7
2014-Dec-16 21:00N 31°03' W 068°35'14 0.6 22.8
2014-Dec-15 22:00N 30°50' W 068°28'0 0.0 22.7
2014-Dec-15 20:00N 30°50' W 068°28'0 0.0 22.7
2014-Dec-15 19:00N 30°50' W 068°28'0 0.0 22.8
2014-Dec-15 18:00N 30°50' W 068°28'0 0.0 22.8
2014-Dec-15 10:00N 30°50' W 068°28'0 0.0 22.7
2014-Dec-15 07:00N 30°50' W 068°28'9 9.4 22.8
2014-Dec-15 06:00N 30°41' W 068°25'0 0.0 22.8
2014-Dec-14 23:00N 30°41' W 068°25'0 0.0 22.7
2014-Dec-14 20:00N 30°41' W 068°25'0 0.0 22.8
2014-Dec-14 18:00N 30°41' W 068°25'0 0.0 22.9
2014-Dec-14 08:00N 30°41' W 068°25'4 0.9 23.1
2014-Dec-14 04:00N 30°39' W 068°22'17 0.5 23.1
2014-Dec-12 21:00N 30°24' W 068°13'0 0.0 23.7
2014-Dec-12 20:00N 30°24' W 068°13'   23.8
Track history (hours):
 
Tides and Currents Weather Stations Pressure Air Temp Water Temp Dewpoint Dewpoint Depression Visibility Wind Speed Wind Dir Waves Ship Positions

Drifting buoy 41613

Last reported at 2014-Dec-22 11:00 UTC. Time now 2014-Dec-22 17:04 UTC.
Position N 31°32' W 069°13'.

Water temperature 22.8 ° C

Date/timePositionNaut miles runAvg speedWind from/ knotsBaromVisibWave heightAir tempDewpointWater temp
2014-Dec-22 11:00N 31°32' W 069°13'0 0.0 22.8
2014-Dec-22 10:00N 31°32' W 069°13'0 0.0 22.9
2014-Dec-22 09:00N 31°32' W 069°13'0 0.0 22.9
2014-Dec-22 06:00N 31°32' W 069°13'0 0.0 22.8
2014-Dec-21 20:00N 31°32' W 069°13'20 1.4 22.8
2014-Dec-21 06:00N 31°26' W 068°51'0 0.0 22.7
2014-Dec-21 00:00N 31°26' W 068°51'0 0.0 22.8
2014-Dec-20 21:00N 31°26' W 068°51'0 0.0 22.8
2014-Dec-20 17:00N 31°26' W 068°51'0 0.0 23.1
2014-Dec-20 11:00N 31°26' W 068°51'0 0.0 22.7
2014-Dec-20 10:00N 31°26' W 068°51'0 0.0 22.8
2014-Dec-20 09:00N 31°26' W 068°51'0 0.0 22.8
2014-Dec-20 05:00N 31°26' W 068°51'0 0.0 23.0
2014-Dec-20 00:00N 31°26' W 068°51'0 0.0 23.1
2014-Dec-19 22:00N 31°26' W 068°51'0 0.0 22.9
2014-Dec-19 21:00N 31°26' W 068°51'0 0.0 22.8
2014-Dec-19 10:00N 31°26' W 068°51'0 0.0 23.0
2014-Dec-19 09:00N 31°26' W 068°51'3 0.5 23.0
2014-Dec-19 02:00N 31°24' W 068°48'4 0.7 23.1
2014-Dec-18 20:00N 31°21' W 068°46'0 0.0 22.7
2014-Dec-18 19:00N 31°21' W 068°46'0 0.0 22.8
2014-Dec-18 15:00N 31°21' W 068°46'1 0.7 22.7
2014-Dec-18 13:00N 31°20' W 068°44'8 1.9 22.7
2014-Dec-18 09:00N 31°14' W 068°38'0 0.0 22.7
2014-Dec-18 01:00N 31°14' W 068°38'0 0.0 22.7
2014-Dec-17 23:00N 31°14' W 068°38'11 2.3 22.7
2014-Dec-17 18:00N 31°03' W 068°35'0 0.0 22.7
2014-Dec-17 09:00N 31°03' W 068°35'0 0.0 22.6
2014-Dec-17 01:00N 31°03' W 068°35'0 0.0 22.7
2014-Dec-16 22:00N 31°03' W 068°35'0 0.0 22.7
2014-Dec-16 21:00N 31°03' W 068°35'14 0.6 22.8
2014-Dec-15 22:00N 30°50' W 068°28'0 0.0 22.7
2014-Dec-15 20:00N 30°50' W 068°28'0 0.0 22.7
2014-Dec-15 19:00N 30°50' W 068°28'0 0.0 22.8
2014-Dec-15 18:00N 30°50' W 068°28'0 0.0 22.8
2014-Dec-15 10:00N 30°50' W 068°28'0 0.0 22.7
2014-Dec-15 07:00N 30°50' W 068°28'9 9.4 22.8
2014-Dec-15 06:00N 30°41' W 068°25'0 0.0 22.8
2014-Dec-14 23:00N 30°41' W 068°25'0 0.0 22.7
2014-Dec-14 20:00N 30°41' W 068°25'0 0.0 22.8
2014-Dec-14 18:00N 30°41' W 068°25'0 0.0 22.9
2014-Dec-14 08:00N 30°41' W 068°25'4 0.9 23.1
2014-Dec-14 04:00N 30°39' W 068°22'17 0.5 23.1
2014-Dec-12 21:00N 30°24' W 068°13'0 0.0 23.7
2014-Dec-12 20:00N 30°24' W 068°13'   23.8

Dump ship's entire track history